No.1 Daieimaru — JD2847 — position and weather

sailwx.info

Track history (hours):
 
Tides and Currents Weather Stations Pressure Air Temp Water Temp Dewpoint Dewpoint Depression Visibility Wind Speed Wind Dir Waves Ship Positions

No.1 Daieimaru

Last reported at 2018-Jul-16 12:26 UTC. Time now 2018-Jul-17 11:37 UTC.
Position N 34°25' E 134°14'.

Length 63 m; draft 4.3 m.

MMSI: 431000816.

Date/timePositionNaut miles runAvg speedWind from/ knotsBaromVisibWave heightAir tempDewpointWater temp
2018-Jul-16 12:26N 34°25' E 134°14'613.0
2018-Jul-16 12:00N 34°25' E 134°21'612.0
2018-Jul-16 11:29N 34°27' E 134°28'511.3
2018-Jul-16 11:00N 34°29' E 134°34'611.3
2018-Jul-16 10:30N 34°31' E 134°40'611.5
2018-Jul-16 10:00N 34°33' E 134°47'611.0
2018-Jul-16 09:29N 34°35' E 134°53'510.9
2018-Jul-16 08:59N 34°38' E 134°59'4 7.9
2018-Jul-16 08:30N 34°36' E 135°04'4 8.2
2018-Jul-16 08:00N 34°36' E 135°09'611.1
2018-Jul-16 07:30N 34°35' E 135°15'611.6
2018-Jul-16 07:00N 34°33' E 135°22'2 4.3
2018-Jul-16 06:27N 34°31' E 135°24'0 0.0
2018-Jul-16 06:00N 34°31' E 135°24'0 0.0
2018-Jul-16 05:30N 34°31' E 135°24'0 0.0
2018-Jul-16 05:00N 34°31' E 135°24'0 0.0
2018-Jul-16 04:30N 34°31' E 135°24'0 0.0
2018-Jul-16 04:00N 34°31' E 135°24'0 0.0
2018-Jul-16 03:30N 34°31' E 135°24'1 2.1
2018-Jul-16 03:00N 34°32' E 135°23'4 7.3
2018-Jul-16 02:30N 34°31' E 135°19'510.2
2018-Jul-16 02:00N 34°28' E 135°13'510.1
2018-Jul-16 01:30N 34°25' E 135°09'510.3
2018-Jul-16 01:00N 34°20' E 135°06'510.4
2018-Jul-16 00:30N 34°16' E 135°03'611.3
2018-Jul-15 23:59N 34°10' E 135°03'511.0
2018-Jul-15 23:30N 34°04' E 135°03'710.4
2018-Jul-15 22:51N 33°58' E 135°02'510.3
2018-Jul-15 22:23N 33°53' E 135°02'226 9.0
2018-Jul-14 21:13N 34°52' E 139°27'610.1
2018-Jul-14 20:38N 34°52' E 139°34'10 0.3
2018-Jul-13 10:10N 34°57' E 139°44'212.4
2018-Jul-13 10:00N 34°59' E 139°43'611.2
2018-Jul-13 09:30N 35°05' E 139°44'510.8
2018-Jul-13 09:00N 35°10' E 139°46'510.9
2018-Jul-13 08:30N 35°16' E 139°46'510.7
2018-Jul-13 08:00N 35°20' E 139°43'510.6
2018-Jul-13 07:30N 35°25' E 139°44'510.8
2018-Jul-13 07:00N 35°29' E 139°49'5 9.9
2018-Jul-13 06:29N 35°33' E 139°53'6 1.2
2018-Jul-13 01:51N 35°37' E 139°48'2 3.7
2018-Jul-13 01:16N 35°36' E 139°50'1 3.3
2018-Jul-13 00:58N 35°36' E 139°52'0 0.0
2018-Jul-13 00:30N 35°36' E 139°52'0 0.0
2018-Jul-13 00:00N 35°36' E 139°52'0 0.0
2018-Jul-12 23:29N 35°36' E 139°52'0 0.0
2018-Jul-12 22:59N 35°36' E 139°52'0 0.0
2018-Jul-12 22:30N 35°36' E 139°52'0 0.0
2018-Jul-12 21:02N 35°36' E 139°52'0 0.0
2018-Jul-12 21:00N 35°36' E 139°52'0 0.0
2018-Jul-12 19:39N 35°36' E 139°52'0 0.0
2018-Jul-12 18:35N 35°36' E 139°52'0 0.0
2018-Jul-12 18:28N 35°36' E 139°52'0 0.0
2018-Jul-12 17:31N 35°36' E 139°52'0 0.0
2018-Jul-12 17:26N 35°36' E 139°52'0 0.0
2018-Jul-12 16:52N 35°36' E 139°52'0 0.0
2018-Jul-12 16:27N 35°36' E 139°52'0 0.0
2018-Jul-12 14:32N 35°36' E 139°52'0 0.2
2018-Jul-12 14:30N 35°36' E 139°52'3 6.1
2018-Jul-12 13:59N 35°33' E 139°53'510.3
2018-Jul-12 13:29N 35°28' E 139°51'510.5
2018-Jul-12 13:00N 35°24' E 139°46'510.7
2018-Jul-12 12:30N 35°19' E 139°44'5 9.4
2018-Jul-12 12:00N 35°15' E 139°47'5 8.8
2018-Jul-12 11:28N 35°11' E 139°46'511.0
2018-Jul-12 11:00N 35°05' E 139°45'511.0
2018-Jul-12 10:30N 35°01' E 139°41'611.4
2018-Jul-12 09:58N 34°58' E 139°35'234 7.2
2018-Jul-11 01:19N 33°52' E 135°03'610.8
2018-Jul-11 00:47N 33°57' E 135°02'311.0
2018-Jul-11 00:29N 34°00' E 135°02'510.5
2018-Jul-11 00:00N 34°06' E 135°02'510.2
2018-Jul-10 23:31N 34°11' E 135°03'510.2
2018-Jul-10 23:01N 34°16' E 135°03'610.9
2018-Jul-10 22:30N 34°21' E 135°05'510.8
2018-Jul-10 22:00N 34°25' E 135°09'510.6
2018-Jul-10 21:30N 34°29' E 135°13'510.7
2018-Jul-10 21:01N 34°33' E 135°18'510.6
2018-Jul-10 20:30N 34°35' E 135°23'3 6.2
2018-Jul-10 19:58N 34°35' E 135°27'0 0.0
2018-Jul-10 03:43N 34°35' E 135°27'0 2.2
2018-Jul-10 03:29N 34°35' E 135°27'1 0.5
2018-Jul-10 01:30N 34°34' E 135°27'0 0.0
2018-Jul-10 00:56N 34°34' E 135°27'0 0.0
2018-Jul-09 22:55N 34°34' E 135°27'0 0.0
2018-Jul-09 22:15N 34°34' E 135°27'0 0.0
2018-Jul-09 22:00N 34°34' E 135°27'0 0.0
2018-Jul-09 21:30N 34°34' E 135°27'0 0.0
2018-Jul-09 20:59N 34°34' E 135°27'0 0.0
2018-Jul-09 20:30N 34°34' E 135°27'0 0.0
2018-Jul-09 20:00N 34°34' E 135°27'0 0.0
2018-Jul-09 19:31N 34°34' E 135°27'0 0.0
2018-Jul-09 19:00N 34°34' E 135°27'0 0.0
2018-Jul-09 18:30N 34°34' E 135°27'0 0.0
2018-Jul-09 18:00N 34°34' E 135°27'0 0.0
2018-Jul-09 17:30N 34°34' E 135°27'0 0.0
2018-Jul-09 17:00N 34°34' E 135°27'0 0.0
2018-Jul-09 16:31N 34°34' E 135°27'0 0.0
2018-Jul-09 16:00N 34°34' E 135°27'0 0.0
2018-Jul-09 15:30N 34°34' E 135°27'0 0.0
2018-Jul-09 15:01N 34°34' E 135°27'0 0.0
2018-Jul-09 14:30N 34°34' E 135°27'0 0.0
2018-Jul-09 14:00N 34°34' E 135°27'0 0.0
2018-Jul-09 13:31N 34°34' E 135°27'0 0.0
2018-Jul-09 13:01N 34°34' E 135°27'0 0.0
2018-Jul-09 12:30N 34°34' E 135°27'0 0.0
2018-Jul-09 12:00N 34°34' E 135°27'0 0.0
2018-Jul-09 11:30N 34°34' E 135°27'0 0.0
2018-Jul-09 11:00N 34°34' E 135°27'0 0.0
2018-Jul-09 10:30N 34°34' E 135°27'0 0.0
2018-Jul-09 10:01N 34°34' E 135°27'0 0.0
2018-Jul-09 09:31N 34°34' E 135°27'0 0.0
2018-Jul-09 09:01N 34°34' E 135°27'0 0.0
2018-Jul-09 08:31N 34°34' E 135°27'0 0.0
2018-Jul-09 08:00N 34°34' E 135°27'0 0.0
2018-Jul-09 07:29N 34°34' E 135°27'0 0.0
2018-Jul-09 07:00N 34°34' E 135°27'0 0.0
2018-Jul-09 03:19N 34°34' E 135°27'0 0.0
2018-Jul-09 02:49N 34°34' E 135°27'0 0.3
2018-Jul-09 02:31N 34°34' E 135°27'4 8.3
2018-Jul-09 02:00N 34°36' E 135°22'511.1
2018-Jul-09 01:30N 34°33' E 135°18'611.3
2018-Jul-09 01:01N 34°28' E 135°13'610.9
2018-Jul-09 00:30N 34°24' E 135°09'511.0
2018-Jul-09 00:00N 34°20' E 135°05'4 8.5
2018-Jul-08 23:31N 34°16' E 135°03'611.1
2018-Jul-08 23:00N 34°10' E 135°03'510.9
2018-Jul-08 22:31N 34°05' E 135°02'710.7
2018-Jul-08 21:50N 33°58' E 135°02'217 5.0
2018-Jul-07 02:20N 34°56' E 139°16'410.9
2018-Jul-07 02:00N 34°58' E 139°19'510.1
2018-Jul-07 01:27N 35°01' E 139°25'4 9.4
2018-Jul-07 01:01N 35°04' E 139°30'510.5
2018-Jul-07 00:30N 35°06' E 139°35'611.1
2018-Jul-07 00:00N 35°08' E 139°42'611.0
2018-Jul-06 23:29N 35°13' E 139°46'510.3
2018-Jul-06 23:00N 35°17' E 139°45'510.8
2018-Jul-06 22:30N 35°22' E 139°42'510.6
2018-Jul-06 22:00N 35°27' E 139°46'611.2
2018-Jul-06 21:30N 35°30' E 139°52'5 9.8
2018-Jul-06 20:58N 35°30' E 139°58'0 0.0
2018-Jul-06 20:19N 35°30' E 139°58'0 0.0
2018-Jul-06 18:37N 35°30' E 139°58'0 0.0
2018-Jul-06 18:13N 35°30' E 139°58'0 0.0
2018-Jul-06 17:55N 35°30' E 139°58'0 0.0
2018-Jul-06 17:25N 35°30' E 139°58'0 0.0
2018-Jul-06 16:55N 35°30' E 139°58'0 0.0
2018-Jul-06 16:28N 35°30' E 139°58'0 0.0
2018-Jul-06 14:53N 35°30' E 139°58'0 0.0
2018-Jul-06 14:24N 35°30' E 139°58'0 0.0
2018-Jul-06 14:00N 35°30' E 139°58'0 0.0
2018-Jul-06 13:29N 35°30' E 139°58'0 0.0
2018-Jul-06 12:59N 35°30' E 139°58'  
Track history (hours):
 
Tides and Currents Weather Stations Pressure Air Temp Water Temp Dewpoint Dewpoint Depression Visibility Wind Speed Wind Dir Waves Ship Positions

No.1 Daieimaru

Last reported at 2018-Jul-16 12:26 UTC. Time now 2018-Jul-17 11:37 UTC.
Position N 34°25' E 134°14'.

Length 63 m; draft 4.3 m.

MMSI: 431000816.

Date/timePositionNaut miles runAvg speedWind from/ knotsBaromVisibWave heightAir tempDewpointWater temp
2018-Jul-16 12:26N 34°25' E 134°14'613.0
2018-Jul-16 12:00N 34°25' E 134°21'612.0
2018-Jul-16 11:29N 34°27' E 134°28'511.3
2018-Jul-16 11:00N 34°29' E 134°34'611.3
2018-Jul-16 10:30N 34°31' E 134°40'611.5
2018-Jul-16 10:00N 34°33' E 134°47'611.0
2018-Jul-16 09:29N 34°35' E 134°53'510.9
2018-Jul-16 08:59N 34°38' E 134°59'4 7.9
2018-Jul-16 08:30N 34°36' E 135°04'4 8.2
2018-Jul-16 08:00N 34°36' E 135°09'611.1
2018-Jul-16 07:30N 34°35' E 135°15'611.6
2018-Jul-16 07:00N 34°33' E 135°22'2 4.3
2018-Jul-16 06:27N 34°31' E 135°24'0 0.0
2018-Jul-16 06:00N 34°31' E 135°24'0 0.0
2018-Jul-16 05:30N 34°31' E 135°24'0 0.0
2018-Jul-16 05:00N 34°31' E 135°24'0 0.0
2018-Jul-16 04:30N 34°31' E 135°24'0 0.0
2018-Jul-16 04:00N 34°31' E 135°24'0 0.0
2018-Jul-16 03:30N 34°31' E 135°24'1 2.1
2018-Jul-16 03:00N 34°32' E 135°23'4 7.3
2018-Jul-16 02:30N 34°31' E 135°19'510.2
2018-Jul-16 02:00N 34°28' E 135°13'510.1
2018-Jul-16 01:30N 34°25' E 135°09'510.3
2018-Jul-16 01:00N 34°20' E 135°06'510.4
2018-Jul-16 00:30N 34°16' E 135°03'611.3
2018-Jul-15 23:59N 34°10' E 135°03'511.0
2018-Jul-15 23:30N 34°04' E 135°03'710.4
2018-Jul-15 22:51N 33°58' E 135°02'510.3
2018-Jul-15 22:23N 33°53' E 135°02'226 9.0
2018-Jul-14 21:13N 34°52' E 139°27'610.1
2018-Jul-14 20:38N 34°52' E 139°34'10 0.3
2018-Jul-13 10:10N 34°57' E 139°44'212.4
2018-Jul-13 10:00N 34°59' E 139°43'611.2
2018-Jul-13 09:30N 35°05' E 139°44'510.8
2018-Jul-13 09:00N 35°10' E 139°46'510.9
2018-Jul-13 08:30N 35°16' E 139°46'510.7
2018-Jul-13 08:00N 35°20' E 139°43'510.6
2018-Jul-13 07:30N 35°25' E 139°44'510.8
2018-Jul-13 07:00N 35°29' E 139°49'5 9.9
2018-Jul-13 06:29N 35°33' E 139°53'6 1.2
2018-Jul-13 01:51N 35°37' E 139°48'2 3.7
2018-Jul-13 01:16N 35°36' E 139°50'1 3.3
2018-Jul-13 00:58N 35°36' E 139°52'0 0.0
2018-Jul-13 00:30N 35°36' E 139°52'0 0.0
2018-Jul-13 00:00N 35°36' E 139°52'0 0.0
2018-Jul-12 23:29N 35°36' E 139°52'0 0.0
2018-Jul-12 22:59N 35°36' E 139°52'0 0.0
2018-Jul-12 22:30N 35°36' E 139°52'0 0.0
2018-Jul-12 21:02N 35°36' E 139°52'0 0.0
2018-Jul-12 21:00N 35°36' E 139°52'0 0.0
2018-Jul-12 19:39N 35°36' E 139°52'0 0.0
2018-Jul-12 18:35N 35°36' E 139°52'0 0.0
2018-Jul-12 18:28N 35°36' E 139°52'0 0.0
2018-Jul-12 17:31N 35°36' E 139°52'0 0.0
2018-Jul-12 17:26N 35°36' E 139°52'0 0.0
2018-Jul-12 16:52N 35°36' E 139°52'0 0.0
2018-Jul-12 16:27N 35°36' E 139°52'0 0.0
2018-Jul-12 14:32N 35°36' E 139°52'0 0.2
2018-Jul-12 14:30N 35°36' E 139°52'3 6.1
2018-Jul-12 13:59N 35°33' E 139°53'510.3
2018-Jul-12 13:29N 35°28' E 139°51'510.5
2018-Jul-12 13:00N 35°24' E 139°46'510.7
2018-Jul-12 12:30N 35°19' E 139°44'5 9.4
2018-Jul-12 12:00N 35°15' E 139°47'5 8.8
2018-Jul-12 11:28N 35°11' E 139°46'511.0
2018-Jul-12 11:00N 35°05' E 139°45'511.0
2018-Jul-12 10:30N 35°01' E 139°41'611.4
2018-Jul-12 09:58N 34°58' E 139°35'234 7.2
2018-Jul-11 01:19N 33°52' E 135°03'610.8
2018-Jul-11 00:47N 33°57' E 135°02'311.0
2018-Jul-11 00:29N 34°00' E 135°02'510.5
2018-Jul-11 00:00N 34°06' E 135°02'510.2
2018-Jul-10 23:31N 34°11' E 135°03'510.2
2018-Jul-10 23:01N 34°16' E 135°03'610.9
2018-Jul-10 22:30N 34°21' E 135°05'510.8
2018-Jul-10 22:00N 34°25' E 135°09'510.6
2018-Jul-10 21:30N 34°29' E 135°13'510.7
2018-Jul-10 21:01N 34°33' E 135°18'510.6
2018-Jul-10 20:30N 34°35' E 135°23'3 6.2
2018-Jul-10 19:58N 34°35' E 135°27'0 0.0
2018-Jul-10 03:43N 34°35' E 135°27'0 2.2
2018-Jul-10 03:29N 34°35' E 135°27'1 0.5
2018-Jul-10 01:30N 34°34' E 135°27'0 0.0
2018-Jul-10 00:56N 34°34' E 135°27'0 0.0
2018-Jul-09 22:55N 34°34' E 135°27'0 0.0
2018-Jul-09 22:15N 34°34' E 135°27'0 0.0
2018-Jul-09 22:00N 34°34' E 135°27'0 0.0
2018-Jul-09 21:30N 34°34' E 135°27'0 0.0
2018-Jul-09 20:59N 34°34' E 135°27'0 0.0
2018-Jul-09 20:30N 34°34' E 135°27'0 0.0
2018-Jul-09 20:00N 34°34' E 135°27'0 0.0
2018-Jul-09 19:31N 34°34' E 135°27'0 0.0
2018-Jul-09 19:00N 34°34' E 135°27'0 0.0
2018-Jul-09 18:30N 34°34' E 135°27'0 0.0
2018-Jul-09 18:00N 34°34' E 135°27'0 0.0
2018-Jul-09 17:30N 34°34' E 135°27'0 0.0
2018-Jul-09 17:00N 34°34' E 135°27'0 0.0
2018-Jul-09 16:31N 34°34' E 135°27'0 0.0
2018-Jul-09 16:00N 34°34' E 135°27'0 0.0
2018-Jul-09 15:30N 34°34' E 135°27'0 0.0
2018-Jul-09 15:01N 34°34' E 135°27'0 0.0
2018-Jul-09 14:30N 34°34' E 135°27'0 0.0
2018-Jul-09 14:00N 34°34' E 135°27'0 0.0
2018-Jul-09 13:31N 34°34' E 135°27'0 0.0
2018-Jul-09 13:01N 34°34' E 135°27'0 0.0
2018-Jul-09 12:30N 34°34' E 135°27'0 0.0
2018-Jul-09 12:00N 34°34' E 135°27'0 0.0
2018-Jul-09 11:30N 34°34' E 135°27'0 0.0
2018-Jul-09 11:00N 34°34' E 135°27'0 0.0
2018-Jul-09 10:30N 34°34' E 135°27'0 0.0
2018-Jul-09 10:01N 34°34' E 135°27'0 0.0
2018-Jul-09 09:31N 34°34' E 135°27'0 0.0
2018-Jul-09 09:01N 34°34' E 135°27'0 0.0
2018-Jul-09 08:31N 34°34' E 135°27'0 0.0
2018-Jul-09 08:00N 34°34' E 135°27'0 0.0
2018-Jul-09 07:29N 34°34' E 135°27'0 0.0
2018-Jul-09 07:00N 34°34' E 135°27'0 0.0
2018-Jul-09 03:19N 34°34' E 135°27'0 0.0
2018-Jul-09 02:49N 34°34' E 135°27'0 0.3
2018-Jul-09 02:31N 34°34' E 135°27'4 8.3
2018-Jul-09 02:00N 34°36' E 135°22'511.1
2018-Jul-09 01:30N 34°33' E 135°18'611.3
2018-Jul-09 01:01N 34°28' E 135°13'610.9
2018-Jul-09 00:30N 34°24' E 135°09'511.0
2018-Jul-09 00:00N 34°20' E 135°05'4 8.5
2018-Jul-08 23:31N 34°16' E 135°03'611.1
2018-Jul-08 23:00N 34°10' E 135°03'510.9
2018-Jul-08 22:31N 34°05' E 135°02'710.7
2018-Jul-08 21:50N 33°58' E 135°02'217 5.0
2018-Jul-07 02:20N 34°56' E 139°16'410.9
2018-Jul-07 02:00N 34°58' E 139°19'510.1
2018-Jul-07 01:27N 35°01' E 139°25'4 9.4
2018-Jul-07 01:01N 35°04' E 139°30'510.5
2018-Jul-07 00:30N 35°06' E 139°35'611.1
2018-Jul-07 00:00N 35°08' E 139°42'611.0
2018-Jul-06 23:29N 35°13' E 139°46'510.3
2018-Jul-06 23:00N 35°17' E 139°45'510.8
2018-Jul-06 22:30N 35°22' E 139°42'510.6
2018-Jul-06 22:00N 35°27' E 139°46'611.2
2018-Jul-06 21:30N 35°30' E 139°52'5 9.8
2018-Jul-06 20:58N 35°30' E 139°58'0 0.0
2018-Jul-06 20:19N 35°30' E 139°58'0 0.0
2018-Jul-06 18:37N 35°30' E 139°58'0 0.0
2018-Jul-06 18:13N 35°30' E 139°58'0 0.0
2018-Jul-06 17:55N 35°30' E 139°58'0 0.0
2018-Jul-06 17:25N 35°30' E 139°58'0 0.0
2018-Jul-06 16:55N 35°30' E 139°58'0 0.0
2018-Jul-06 16:28N 35°30' E 139°58'0 0.0
2018-Jul-06 14:53N 35°30' E 139°58'0 0.0
2018-Jul-06 14:24N 35°30' E 139°58'0 0.0
2018-Jul-06 14:00N 35°30' E 139°58'0 0.0
2018-Jul-06 13:29N 35°30' E 139°58'0 0.0
2018-Jul-06 12:59N 35°30' E 139°58'  

Dump ship's entire track history